HEPS

Port Said Airport

Port Said, Egypt
METAR HEPS 182000Z 34003KT CAVOK 14/12 Q1022 NOSIG
Observed Flight Rules
Jan-18 @ 20:00 UTC (an hour ago) Visual Flight Rules
Wind Visibility Clouds
340° at 3 knots 10,000+ meters
  • Clear skies
Temperatures Readings
Current 14°C / 57°F
Dewpoint 12°C / 54°F
Humidity 88%
Altimeter 30.18" Hg
Pressure 1021.92 hPa
Elevation 6
METAR HEPS 182000Z 34003KT CAVOK 14/12 Q1022 NOSIG
Observed Flight Rules
Jan-18 @ 20:00 UTC
(an hour ago)
VFR
Wind Visibility
340° at 3 knots 10,000+ meters
Clouds
  • Clear skies
Temperature Dewpoint
14°C / 57°F 12°C / 54°F
Humidity Altimeter Pressure
88% 30.18" Hg 1021.92 hPa